sensor_id;sensor_type;location;lat;lon;timestamp;P1;durP1;ratioP1;P2;durP2;ratioP2
34741;SDS011;20968;42.696;23.360;2022-10-24T00:02:00;34.58;;;17.00;;
34741;SDS011;20968;42.696;23.360;2022-10-24T00:04:26;36.95;;;20.52;;
34741;SDS011;20968;42.696;23.360;2022-10-24T00:06:51;36.72;;;20.10;;
34741;SDS011;20968;42.696;23.360;2022-10-24T00:09:16;38.50;;;18.83;;
34741;SDS011;20968;42.696;23.360;2022-10-24T00:11:42;33.22;;;17.17;;
34741;SDS011;20968;42.696;23.360;2022-10-24T00:14:07;32.10;;;17.13;;
34741;SDS011;20968;42.696;23.360;2022-10-24T00:16:33;29.25;;;14.88;;
34741;SDS011;20968;42.696;23.360;2022-10-24T00:18:59;31.40;;;16.30;;
34741;SDS011;20968;42.696;23.360;2022-10-24T00:21:25;29.23;;;14.48;;
34741;SDS011;20968;42.696;23.360;2022-10-24T00:23:50;30.50;;;14.23;;
34741;SDS011;20968;42.696;23.360;2022-10-24T00:26:16;26.77;;;15.07;;
34741;SDS011;20968;42.696;23.360;2022-10-24T00:28:42;26.73;;;14.23;;
34741;SDS011;20968;42.696;23.360;2022-10-24T00:31:08;24.08;;;11.90;;
34741;SDS011;20968;42.696;23.360;2022-10-24T00:33:37;26.38;;;12.52;;
34741;SDS011;20968;42.696;23.360;2022-10-24T00:36:03;26.35;;;11.80;;
34741;SDS011;20968;42.696;23.360;2022-10-24T00:38:28;27.70;;;11.35;;
34741;SDS011;20968;42.696;23.360;2022-10-24T00:40:54;20.65;;;11.00;;
34741;SDS011;20968;42.696;23.360;2022-10-24T00:43:23;20.77;;;10.80;;
34741;SDS011;20968;42.696;23.360;2022-10-24T00:48:31;21.98;;;11.25;;
34741;SDS011;20968;42.696;23.360;2022-10-24T00:51:10;23.05;;;11.00;;
34741;SDS011;20968;42.696;23.360;2022-10-24T00:53:48;19.95;;;10.45;;
34741;SDS011;20968;42.696;23.360;2022-10-24T00:56:16;18.98;;;9.85;;
34741;SDS011;20968;42.696;23.360;2022-10-24T00:58:45;19.35;;;9.95;;
34741;SDS011;20968;42.696;23.360;2022-10-24T01:01:13;20.77;;;9.88;;
34741;SDS011;20968;42.696;23.360;2022-10-24T01:03:38;19.25;;;9.82;;
34741;SDS011;20968;42.696;23.360;2022-10-24T01:08:44;18.67;;;9.50;;
34741;SDS011;20968;42.696;23.360;2022-10-24T01:16:16;19.52;;;10.07;;
34741;SDS011;20968;42.696;23.360;2022-10-24T01:18:49;17.60;;;9.70;;
34741;SDS011;20968;42.696;23.360;2022-10-24T01:21:29;17.40;;;10.10;;
34741;SDS011;20968;42.696;23.360;2022-10-24T01:32:15;22.80;;;12.10;;
34741;SDS011;20968;42.696;23.360;2022-10-24T01:37:35;18.20;;;10.77;;
34741;SDS011;20968;42.696;23.360;2022-10-24T01:40:14;17.83;;;9.98;;
34741;SDS011;20968;42.696;23.360;2022-10-24T01:42:44;14.75;;;9.70;;
34741;SDS011;20968;42.696;23.360;2022-10-24T01:45:15;15.68;;;9.75;;
34741;SDS011;20968;42.696;23.360;2022-10-24T01:47:50;12.65;;;8.43;;
34741;SDS011;20968;42.696;23.360;2022-10-24T01:50:20;19.08;;;10.27;;
34741;SDS011;20968;42.696;23.360;2022-10-24T01:52:49;19.83;;;8.80;;
34741;SDS011;20968;42.696;23.360;2022-10-24T01:55:16;19.55;;;10.60;;
34741;SDS011;20968;42.696;23.360;2022-10-24T01:57:42;17.13;;;9.20;;
34741;SDS011;20968;42.696;23.360;2022-10-24T02:00:10;16.27;;;9.07;;
34741;SDS011;20968;42.696;23.360;2022-10-24T02:05:31;19.23;;;9.63;;
34741;SDS011;20968;42.696;23.360;2022-10-24T02:08:10;24.40;;;12.13;;
34741;SDS011;20968;42.696;23.360;2022-10-24T02:13:43;18.88;;;10.27;;
34741;SDS011;20968;42.696;23.360;2022-10-24T02:16:16;19.80;;;11.23;;
34741;SDS011;20968;42.696;23.360;2022-10-24T02:18:43;20.77;;;11.38;;
34741;SDS011;20968;42.696;23.360;2022-10-24T02:21:17;21.67;;;11.48;;
34741;SDS011;20968;42.696;23.360;2022-10-24T02:26:57;17.13;;;9.23;;
34741;SDS011;20968;42.696;23.360;2022-10-24T02:32:05;19.08;;;10.15;;
34741;SDS011;20968;42.696;23.360;2022-10-24T02:34:33;17.45;;;10.57;;
34741;SDS011;20968;42.696;23.360;2022-10-24T02:37:02;23.98;;;10.75;;
34741;SDS011;20968;42.696;23.360;2022-10-24T02:39:30;19.90;;;9.73;;
34741;SDS011;20968;42.696;23.360;2022-10-24T02:41:58;13.25;;;8.35;;
34741;SDS011;20968;42.696;23.360;2022-10-24T02:44:24;22.23;;;9.23;;
34741;SDS011;20968;42.696;23.360;2022-10-24T02:46:53;15.88;;;9.57;;
34741;SDS011;20968;42.696;23.360;2022-10-24T02:49:23;20.48;;;11.27;;
34741;SDS011;20968;42.696;23.360;2022-10-24T02:51:50;18.90;;;11.30;;
34741;SDS011;20968;42.696;23.360;2022-10-24T02:54:17;21.25;;;10.65;;
34741;SDS011;20968;42.696;23.360;2022-10-24T02:56:47;17.75;;;10.45;;
34741;SDS011;20968;42.696;23.360;2022-10-24T02:59:17;20.42;;;9.63;;
34741;SDS011;20968;42.696;23.360;2022-10-24T03:01:42;20.33;;;9.48;;
34741;SDS011;20968;42.696;23.360;2022-10-24T03:04:08;17.98;;;10.23;;
34741;SDS011;20968;42.696;23.360;2022-10-24T03:06:33;19.52;;;10.23;;
34741;SDS011;20968;42.696;23.360;2022-10-24T03:08:58;22.00;;;11.30;;
34741;SDS011;20968;42.696;23.360;2022-10-24T03:11:24;20.02;;;10.57;;
34741;SDS011;20968;42.696;23.360;2022-10-24T03:13:49;17.88;;;10.25;;
34741;SDS011;20968;42.696;23.360;2022-10-24T03:16:15;21.95;;;10.38;;
34741;SDS011;20968;42.696;23.360;2022-10-24T03:18:41;22.52;;;11.18;;
34741;SDS011;20968;42.696;23.360;2022-10-24T03:21:06;16.77;;;9.70;;
34741;SDS011;20968;42.696;23.360;2022-10-24T03:23:32;30.15;;;12.93;;
34741;SDS011;20968;42.696;23.360;2022-10-24T03:25:57;21.70;;;11.65;;
34741;SDS011;20968;42.696;23.360;2022-10-24T03:28:23;18.83;;;10.02;;
34741;SDS011;20968;42.696;23.360;2022-10-24T03:30:49;20.15;;;11.38;;
34741;SDS011;20968;42.696;23.360;2022-10-24T03:33:15;19.20;;;10.32;;
34741;SDS011;20968;42.696;23.360;2022-10-24T03:35:41;18.13;;;9.93;;
34741;SDS011;20968;42.696;23.360;2022-10-24T03:38:06;16.33;;;8.75;;
34741;SDS011;20968;42.696;23.360;2022-10-24T03:40:32;17.08;;;9.82;;
34741;SDS011;20968;42.696;23.360;2022-10-24T03:42:58;18.13;;;9.07;;
34741;SDS011;20968;42.696;23.360;2022-10-24T03:45:24;20.50;;;9.40;;
34741;SDS011;20968;42.696;23.360;2022-10-24T03:47:50;18.30;;;9.57;;
34741;SDS011;20968;42.696;23.360;2022-10-24T03:50:15;23.75;;;9.85;;
34741;SDS011;20968;42.696;23.360;2022-10-24T03:52:40;19.63;;;10.20;;
34741;SDS011;20968;42.696;23.360;2022-10-24T03:55:06;22.92;;;11.43;;
34741;SDS011;20968;42.696;23.360;2022-10-24T03:57:32;20.90;;;11.05;;
34741;SDS011;20968;42.696;23.360;2022-10-24T03:59:57;21.75;;;11.32;;
34741;SDS011;20968;42.696;23.360;2022-10-24T04:02:22;22.40;;;10.82;;
34741;SDS011;20968;42.696;23.360;2022-10-24T04:04:48;27.60;;;11.20;;
34741;SDS011;20968;42.696;23.360;2022-10-24T04:07:13;23.38;;;13.57;;
34741;SDS011;20968;42.696;23.360;2022-10-24T04:09:39;17.02;;;9.93;;
34741;SDS011;20968;42.696;23.360;2022-10-24T04:12:04;17.33;;;9.93;;
34741;SDS011;20968;42.696;23.360;2022-10-24T04:14:30;20.60;;;11.20;;
34741;SDS011;20968;42.696;23.360;2022-10-24T04:16:55;21.95;;;10.68;;
34741;SDS011;20968;42.696;23.360;2022-10-24T04:19:20;18.60;;;9.45;;
34741;SDS011;20968;42.696;23.360;2022-10-24T04:21:46;14.25;;;8.80;;
34741;SDS011;20968;42.696;23.360;2022-10-24T04:24:14;18.88;;;9.70;;
34741;SDS011;20968;42.696;23.360;2022-10-24T04:26:40;19.80;;;8.20;;
34741;SDS011;20968;42.696;23.360;2022-10-24T04:29:06;17.85;;;9.35;;
34741;SDS011;20968;42.696;23.360;2022-10-24T04:31:31;17.83;;;9.48;;
34741;SDS011;20968;42.696;23.360;2022-10-24T04:33:57;24.17;;;10.60;;
34741;SDS011;20968;42.696;23.360;2022-10-24T04:36:22;26.70;;;10.95;;
34741;SDS011;20968;42.696;23.360;2022-10-24T04:38:48;26.63;;;12.80;;
34741;SDS011;20968;42.696;23.360;2022-10-24T04:41:13;19.80;;;11.75;;
34741;SDS011;20968;42.696;23.360;2022-10-24T04:43:39;23.55;;;12.75;;
34741;SDS011;20968;42.696;23.360;2022-10-24T04:46:04;23.98;;;12.52;;
34741;SDS011;20968;42.696;23.360;2022-10-24T04:48:31;19.15;;;11.48;;
34741;SDS011;20968;42.696;23.360;2022-10-24T04:50:56;19.75;;;10.43;;
34741;SDS011;20968;42.696;23.360;2022-10-24T04:53:22;7.93;;;5.50;;
34741;SDS011;20968;42.696;23.360;2022-10-24T04:55:48;12.65;;;7.10;;
34741;SDS011;20968;42.696;23.360;2022-10-24T04:58:13;17.67;;;7.95;;
34741;SDS011;20968;42.696;23.360;2022-10-24T05:00:39;15.20;;;7.18;;
34741;SDS011;20968;42.696;23.360;2022-10-24T05:03:06;19.40;;;7.80;;
34741;SDS011;20968;42.696;23.360;2022-10-24T05:05:32;18.60;;;6.93;;
34741;SDS011;20968;42.696;23.360;2022-10-24T05:07:58;17.10;;;6.60;;
34741;SDS011;20968;42.696;23.360;2022-10-24T05:10:23;13.50;;;7.22;;
34741;SDS011;20968;42.696;23.360;2022-10-24T05:12:48;13.23;;;6.95;;
34741;SDS011;20968;42.696;23.360;2022-10-24T05:15:14;19.33;;;8.63;;
34741;SDS011;20968;42.696;23.360;2022-10-24T05:17:39;19.80;;;9.20;;
34741;SDS011;20968;42.696;23.360;2022-10-24T05:20:05;18.67;;;8.40;;
34741;SDS011;20968;42.696;23.360;2022-10-24T05:22:31;19.52;;;7.85;;
34741;SDS011;20968;42.696;23.360;2022-10-24T05:24:57;22.10;;;8.00;;
34741;SDS011;20968;42.696;23.360;2022-10-24T05:27:22;23.98;;;8.77;;
34741;SDS011;20968;42.696;23.360;2022-10-24T05:29:51;20.00;;;9.73;;
34741;SDS011;20968;42.696;23.360;2022-10-24T05:32:17;23.38;;;9.32;;
34741;SDS011;20968;42.696;23.360;2022-10-24T05:34:50;35.53;;;9.53;;
34741;SDS011;20968;42.696;23.360;2022-10-24T05:37:16;37.75;;;12.07;;
34741;SDS011;20968;42.696;23.360;2022-10-24T05:39:41;21.10;;;10.05;;
34741;SDS011;20968;42.696;23.360;2022-10-24T05:42:07;21.15;;;10.95;;
34741;SDS011;20968;42.696;23.360;2022-10-24T05:44:32;19.05;;;8.68;;
34741;SDS011;20968;42.696;23.360;2022-10-24T05:46:58;22.00;;;8.70;;
34741;SDS011;20968;42.696;23.360;2022-10-24T05:49:23;14.98;;;8.07;;
34741;SDS011;20968;42.696;23.360;2022-10-24T05:51:49;22.00;;;8.50;;
34741;SDS011;20968;42.696;23.360;2022-10-24T05:54:14;16.80;;;9.07;;
34741;SDS011;20968;42.696;23.360;2022-10-24T05:56:40;34.72;;;11.18;;
34741;SDS011;20968;42.696;23.360;2022-10-24T05:59:06;14.90;;;9.00;;
34741;SDS011;20968;42.696;23.360;2022-10-24T06:01:31;16.42;;;8.95;;
34741;SDS011;20968;42.696;23.360;2022-10-24T06:03:57;25.42;;;11.43;;
34741;SDS011;20968;42.696;23.360;2022-10-24T06:06:22;19.63;;;10.43;;
34741;SDS011;20968;42.696;23.360;2022-10-24T06:08:48;23.75;;;13.75;;
34741;SDS011;20968;42.696;23.360;2022-10-24T06:11:15;30.35;;;14.60;;
34741;SDS011;20968;42.696;23.360;2022-10-24T06:13:40;32.17;;;13.25;;
34741;SDS011;20968;42.696;23.360;2022-10-24T06:16:06;32.40;;;10.88;;
34741;SDS011;20968;42.696;23.360;2022-10-24T06:18:32;26.95;;;11.40;;
34741;SDS011;20968;42.696;23.360;2022-10-24T06:20:58;28.83;;;12.23;;
34741;SDS011;20968;42.696;23.360;2022-10-24T06:23:25;33.55;;;11.73;;
34741;SDS011;20968;42.696;23.360;2022-10-24T06:25:50;25.02;;;10.65;;
34741;SDS011;20968;42.696;23.360;2022-10-24T06:28:16;20.80;;;11.10;;
34741;SDS011;20968;42.696;23.360;2022-10-24T06:30:41;26.15;;;11.70;;
34741;SDS011;20968;42.696;23.360;2022-10-24T06:33:07;27.13;;;11.73;;
34741;SDS011;20968;42.696;23.360;2022-10-24T06:35:33;26.65;;;10.88;;
34741;SDS011;20968;42.696;23.360;2022-10-24T06:37:59;25.17;;;10.20;;
34741;SDS011;20968;42.696;23.360;2022-10-24T06:40:24;25.77;;;10.25;;
34741;SDS011;20968;42.696;23.360;2022-10-24T06:42:49;21.08;;;9.70;;
34741;SDS011;20968;42.696;23.360;2022-10-24T06:45:15;11.80;;;6.35;;
34741;SDS011;20968;42.696;23.360;2022-10-24T06:47:42;22.08;;;9.75;;
34741;SDS011;20968;42.696;23.360;2022-10-24T06:50:08;24.05;;;10.20;;
34741;SDS011;20968;42.696;23.360;2022-10-24T06:52:34;21.90;;;9.70;;
34741;SDS011;20968;42.696;23.360;2022-10-24T06:55:00;35.97;;;11.45;;
34741;SDS011;20968;42.696;23.360;2022-10-24T06:57:26;29.10;;;12.43;;
34741;SDS011;20968;42.696;23.360;2022-10-24T06:59:52;31.48;;;10.80;;
34741;SDS011;20968;42.696;23.360;2022-10-24T07:02:17;28.02;;;10.48;;
34741;SDS011;20968;42.696;23.360;2022-10-24T07:04:43;25.00;;;11.65;;
34741;SDS011;20968;42.696;23.360;2022-10-24T07:07:13;24.20;;;11.45;;
34741;SDS011;20968;42.696;23.360;2022-10-24T07:09:42;25.27;;;11.25;;
34741;SDS011;20968;42.696;23.360;2022-10-24T07:12:09;22.70;;;11.10;;
34741;SDS011;20968;42.696;23.360;2022-10-24T07:14:35;18.80;;;10.88;;
34741;SDS011;20968;42.696;23.360;2022-10-24T07:17:01;28.50;;;11.98;;
34741;SDS011;20968;42.696;23.360;2022-10-24T07:19:26;23.83;;;10.63;;
34741;SDS011;20968;42.696;23.360;2022-10-24T07:21:52;20.88;;;11.60;;
34741;SDS011;20968;42.696;23.360;2022-10-24T07:24:17;22.60;;;9.30;;
34741;SDS011;20968;42.696;23.360;2022-10-24T07:26:45;14.43;;;8.55;;
34741;SDS011;20968;42.696;23.360;2022-10-24T07:29:10;16.45;;;8.48;;
34741;SDS011;20968;42.696;23.360;2022-10-24T07:31:36;21.90;;;9.40;;
34741;SDS011;20968;42.696;23.360;2022-10-24T07:34:03;20.00;;;9.00;;
34741;SDS011;20968;42.696;23.360;2022-10-24T07:36:30;16.67;;;8.88;;
34741;SDS011;20968;42.696;23.360;2022-10-24T07:38:56;13.77;;;8.20;;
34741;SDS011;20968;42.696;23.360;2022-10-24T07:41:23;21.85;;;9.77;;
34741;SDS011;20968;42.696;23.360;2022-10-24T07:43:50;21.73;;;9.10;;
34741;SDS011;20968;42.696;23.360;2022-10-24T07:46:17;20.30;;;9.18;;
34741;SDS011;20968;42.696;23.360;2022-10-24T07:48:43;17.35;;;9.02;;
34741;SDS011;20968;42.696;23.360;2022-10-24T07:51:10;17.40;;;8.23;;
34741;SDS011;20968;42.696;23.360;2022-10-24T07:53:37;17.02;;;9.10;;
34741;SDS011;20968;42.696;23.360;2022-10-24T07:56:04;17.67;;;9.32;;
34741;SDS011;20968;42.696;23.360;2022-10-24T07:58:33;19.90;;;10.05;;
34741;SDS011;20968;42.696;23.360;2022-10-24T08:01:07;15.85;;;9.88;;
34741;SDS011;20968;42.696;23.360;2022-10-24T08:03:37;15.10;;;7.50;;
34741;SDS011;20968;42.696;23.360;2022-10-24T08:06:04;18.05;;;8.77;;
34741;SDS011;20968;42.696;23.360;2022-10-24T08:08:31;14.55;;;8.95;;
34741;SDS011;20968;42.696;23.360;2022-10-24T08:10:56;23.35;;;9.90;;
34741;SDS011;20968;42.696;23.360;2022-10-24T08:13:22;20.38;;;7.90;;
34741;SDS011;20968;42.696;23.360;2022-10-24T08:15:47;13.73;;;8.45;;
34741;SDS011;20968;42.696;23.360;2022-10-24T08:18:13;18.58;;;9.02;;
34741;SDS011;20968;42.696;23.360;2022-10-24T08:20:38;15.43;;;9.10;;
34741;SDS011;20968;42.696;23.360;2022-10-24T08:23:04;19.05;;;8.65;;
34741;SDS011;20968;42.696;23.360;2022-10-24T08:25:29;18.52;;;8.98;;
34741;SDS011;20968;42.696;23.360;2022-10-24T08:27:55;32.88;;;8.40;;
34741;SDS011;20968;42.696;23.360;2022-10-24T08:30:20;14.82;;;7.65;;
34741;SDS011;20968;42.696;23.360;2022-10-24T08:32:45;14.85;;;7.80;;
34741;SDS011;20968;42.696;23.360;2022-10-24T08:35:14;13.02;;;7.97;;
34741;SDS011;20968;42.696;23.360;2022-10-24T08:37:42;17.75;;;9.32;;
34741;SDS011;20968;42.696;23.360;2022-10-24T08:40:07;12.90;;;7.93;;
34741;SDS011;20968;42.696;23.360;2022-10-24T08:42:39;19.02;;;8.88;;
34741;SDS011;20968;42.696;23.360;2022-10-24T08:45:09;19.08;;;8.02;;
34741;SDS011;20968;42.696;23.360;2022-10-24T08:47:41;13.95;;;7.68;;
34741;SDS011;20968;42.696;23.360;2022-10-24T08:50:41;23.95;;;9.32;;
34741;SDS011;20968;42.696;23.360;2022-10-24T08:53:13;19.67;;;10.50;;
34741;SDS011;20968;42.696;23.360;2022-10-24T08:55:45;20.98;;;10.27;;
34741;SDS011;20968;42.696;23.360;2022-10-24T08:58:22;18.20;;;10.63;;
34741;SDS011;20968;42.696;23.360;2022-10-24T09:00:50;13.32;;;8.82;;
34741;SDS011;20968;42.696;23.360;2022-10-24T09:06:01;17.42;;;8.35;;
34741;SDS011;20968;42.696;23.360;2022-10-24T09:11:04;22.33;;;9.43;;
34741;SDS011;20968;42.696;23.360;2022-10-24T09:13:31;21.05;;;7.78;;
34741;SDS011;20968;42.696;23.360;2022-10-24T09:15:59;20.20;;;8.00;;
34741;SDS011;20968;42.696;23.360;2022-10-24T09:18:38;14.55;;;7.80;;
34741;SDS011;20968;42.696;23.360;2022-10-24T09:21:06;17.20;;;7.53;;
34741;SDS011;20968;42.696;23.360;2022-10-24T09:23:33;22.33;;;8.00;;
34741;SDS011;20968;42.696;23.360;2022-10-24T09:26:01;15.40;;;6.93;;
34741;SDS011;20968;42.696;23.360;2022-10-24T09:28:29;15.05;;;7.60;;
34741;SDS011;20968;42.696;23.360;2022-10-24T09:30:57;15.00;;;7.20;;
34741;SDS011;20968;42.696;23.360;2022-10-24T09:33:31;23.02;;;7.90;;
34741;SDS011;20968;42.696;23.360;2022-10-24T09:36:00;13.75;;;7.00;;
34741;SDS011;20968;42.696;23.360;2022-10-24T09:38:29;11.32;;;6.20;;
34741;SDS011;20968;42.696;23.360;2022-10-24T09:40:58;9.93;;;5.43;;
34741;SDS011;20968;42.696;23.360;2022-10-24T09:56:39;15.35;;;5.90;;
34741;SDS011;20968;42.696;23.360;2022-10-24T10:00:06;13.25;;;4.57;;
34741;SDS011;20968;42.696;23.360;2022-10-24T10:02:14;8.65;;;4.45;;
34741;SDS011;20968;42.696;23.360;2022-10-24T10:04:44;10.73;;;5.88;;
34741;SDS011;20968;42.696;23.360;2022-10-24T10:07:16;10.60;;;5.38;;
34741;SDS011;20968;42.696;23.360;2022-10-24T10:10:03;9.65;;;4.78;;
34741;SDS011;20968;42.696;23.360;2022-10-24T10:12:53;8.82;;;4.25;;
34741;SDS011;20968;42.696;23.360;2022-10-24T10:17:58;11.15;;;4.82;;
34741;SDS011;20968;42.696;23.360;2022-10-24T10:20:39;8.48;;;5.55;;
34741;SDS011;20968;42.696;23.360;2022-10-24T10:26:02;7.30;;;4.25;;
34741;SDS011;20968;42.696;23.360;2022-10-24T10:28:35;12.82;;;4.65;;
34741;SDS011;20968;42.696;23.360;2022-10-24T10:31:10;13.55;;;4.82;;
34741;SDS011;20968;42.696;23.360;2022-10-24T10:33:39;10.43;;;4.38;;
34741;SDS011;20968;42.696;23.360;2022-10-24T10:36:23;11.57;;;4.38;;
34741;SDS011;20968;42.696;23.360;2022-10-24T10:44:45;8.23;;;3.65;;
34741;SDS011;20968;42.696;23.360;2022-10-24T10:50:25;9.88;;;5.00;;
34741;SDS011;20968;42.696;23.360;2022-10-24T10:52:59;9.02;;;4.45;;
34741;SDS011;20968;42.696;23.360;2022-10-24T10:58:41;18.75;;;4.70;;
34741;SDS011;20968;42.696;23.360;2022-10-24T11:09:32;14.93;;;5.75;;
34741;SDS011;20968;42.696;23.360;2022-10-24T11:12:16;15.32;;;5.53;;
34741;SDS011;20968;42.696;23.360;2022-10-24T11:14:50;10.15;;;4.28;;
34741;SDS011;20968;42.696;23.360;2022-10-24T11:17:28;12.30;;;5.05;;
34741;SDS011;20968;42.696;23.360;2022-10-24T11:22:37;13.73;;;5.22;;
34741;SDS011;20968;42.696;23.360;2022-10-24T11:25:42;7.90;;;4.88;;
34741;SDS011;20968;42.696;23.360;2022-10-24T11:28:28;10.93;;;4.60;;
34741;SDS011;20968;42.696;23.360;2022-10-24T11:31:07;12.95;;;4.75;;
34741;SDS011;20968;42.696;23.360;2022-10-24T11:33:35;14.93;;;4.55;;
34741;SDS011;20968;42.696;23.360;2022-10-24T11:38:54;19.10;;;3.65;;
34741;SDS011;20968;42.696;23.360;2022-10-24T11:50:38;11.43;;;3.75;;
34741;SDS011;20968;42.696;23.360;2022-10-24T11:55:57;13.25;;;4.15;;
34741;SDS011;20968;42.696;23.360;2022-10-24T11:58:26;15.25;;;3.78;;
34741;SDS011;20968;42.696;23.360;2022-10-24T12:12:16;11.00;;;4.10;;
34741;SDS011;20968;42.696;23.360;2022-10-24T12:15:05;17.02;;;4.95;;
34741;SDS011;20968;42.696;23.360;2022-10-24T12:17:58;13.07;;;4.10;;
34741;SDS011;20968;42.696;23.360;2022-10-24T12:20:36;16.23;;;4.93;;
34741;SDS011;20968;42.696;23.360;2022-10-24T12:23:03;14.27;;;4.45;;
34741;SDS011;20968;42.696;23.360;2022-10-24T12:25:34;15.57;;;4.00;;
34741;SDS011;20968;42.696;23.360;2022-10-24T12:28:06;17.48;;;5.45;;
34741;SDS011;20968;42.696;23.360;2022-10-24T12:30:42;17.65;;;4.35;;
34741;SDS011;20968;42.696;23.360;2022-10-24T12:33:27;13.65;;;4.93;;
34741;SDS011;20968;42.696;23.360;2022-10-24T12:35:53;14.50;;;5.43;;
34741;SDS011;20968;42.696;23.360;2022-10-24T12:40:54;7.90;;;3.78;;
34741;SDS011;20968;42.696;23.360;2022-10-24T12:56:22;13.90;;;4.65;;
34741;SDS011;20968;42.696;23.360;2022-10-24T12:58:54;12.48;;;4.65;;
34741;SDS011;20968;42.696;23.360;2022-10-24T13:01:23;9.38;;;3.85;;
34741;SDS011;20968;42.696;23.360;2022-10-24T13:03:57;15.27;;;4.07;;
34741;SDS011;20968;42.696;23.360;2022-10-24T13:06:51;18.67;;;4.55;;
34741;SDS011;20968;42.696;23.360;2022-10-24T13:10:06;9.15;;;3.92;;
34741;SDS011;20968;42.696;23.360;2022-10-24T13:21:31;19.08;;;4.45;;
34741;SDS011;20968;42.696;23.360;2022-10-24T13:26:41;12.20;;;4.57;;
34741;SDS011;20968;42.696;23.360;2022-10-24T13:29:16;19.63;;;4.40;;
34741;SDS011;20968;42.696;23.360;2022-10-24T13:34:40;16.42;;;4.40;;
34741;SDS011;20968;42.696;23.360;2022-10-24T13:39:38;17.50;;;4.20;;
34741;SDS011;20968;42.696;23.360;2022-10-24T13:42:18;14.05;;;3.75;;
34741;SDS011;20968;42.696;23.360;2022-10-24T13:44:49;16.52;;;5.00;;
34741;SDS011;20968;42.696;23.360;2022-10-24T13:47:21;14.88;;;5.28;;
34741;SDS011;20968;42.696;23.360;2022-10-24T13:49:59;18.08;;;5.15;;
34741;SDS011;20968;42.696;23.360;2022-10-24T13:52:33;18.67;;;5.47;;
34741;SDS011;20968;42.696;23.360;2022-10-24T13:55:15;12.88;;;4.63;;
34741;SDS011;20968;42.696;23.360;2022-10-24T13:57:51;22.95;;;5.13;;
34741;SDS011;20968;42.696;23.360;2022-10-24T14:00:25;17.30;;;5.82;;
34741;SDS011;20968;42.696;23.360;2022-10-24T14:02:53;17.50;;;4.88;;
34741;SDS011;20968;42.696;23.360;2022-10-24T14:08:01;24.25;;;5.88;;
34741;SDS011;20968;42.696;23.360;2022-10-24T14:10:27;13.38;;;3.75;;
34741;SDS011;20968;42.696;23.360;2022-10-24T14:12:54;16.42;;;5.00;;
34741;SDS011;20968;42.696;23.360;2022-10-24T14:15:22;13.38;;;6.18;;
34741;SDS011;20968;42.696;23.360;2022-10-24T14:18:00;13.05;;;4.82;;
34741;SDS011;20968;42.696;23.360;2022-10-24T14:20:31;13.47;;;4.20;;
34741;SDS011;20968;42.696;23.360;2022-10-24T14:22:58;19.13;;;5.22;;
34741;SDS011;20968;42.696;23.360;2022-10-24T14:25:34;17.42;;;4.15;;
34741;SDS011;20968;42.696;23.360;2022-10-24T14:28:07;16.23;;;4.53;;
34741;SDS011;20968;42.696;23.360;2022-10-24T14:30:39;13.52;;;4.78;;
34741;SDS011;20968;42.696;23.360;2022-10-24T14:33:06;19.73;;;4.78;;
34741;SDS011;20968;42.696;23.360;2022-10-24T14:35:43;14.75;;;4.50;;
34741;SDS011;20968;42.696;23.360;2022-10-24T14:38:11;16.80;;;5.38;;
34741;SDS011;20968;42.696;23.360;2022-10-24T14:40:40;8.90;;;4.30;;
34741;SDS011;20968;42.696;23.360;2022-10-24T14:43:10;9.30;;;4.15;;
34741;SDS011;20968;42.696;23.360;2022-10-24T14:45:39;18.98;;;4.93;;
34741;SDS011;20968;42.696;23.360;2022-10-24T14:48:12;9.77;;;4.45;;
34741;SDS011;20968;42.696;23.360;2022-10-24T14:50:47;23.83;;;5.77;;
34741;SDS011;20968;42.696;23.360;2022-10-24T14:53:24;10.40;;;3.97;;
34741;SDS011;20968;42.696;23.360;2022-10-24T14:55:51;20.98;;;5.15;;
34741;SDS011;20968;42.696;23.360;2022-10-24T14:58:20;25.13;;;5.70;;
34741;SDS011;20968;42.696;23.360;2022-10-24T15:00:48;21.73;;;5.30;;
34741;SDS011;20968;42.696;23.360;2022-10-24T15:03:14;11.18;;;4.68;;
34741;SDS011;20968;42.696;23.360;2022-10-24T15:05:40;8.48;;;4.35;;
34741;SDS011;20968;42.696;23.360;2022-10-24T15:10:36;13.05;;;4.00;;
34741;SDS011;20968;42.696;23.360;2022-10-24T15:13:19;7.40;;;4.03;;
34741;SDS011;20968;42.696;23.360;2022-10-24T15:15:48;14.55;;;4.93;;
34741;SDS011;20968;42.696;23.360;2022-10-24T15:20:52;14.20;;;4.70;;
34741;SDS011;20968;42.696;23.360;2022-10-24T15:23:31;17.58;;;4.72;;
34741;SDS011;20968;42.696;23.360;2022-10-24T15:26:09;16.60;;;5.20;;
34741;SDS011;20968;42.696;23.360;2022-10-24T15:31:45;16.13;;;5.80;;
34741;SDS011;20968;42.696;23.360;2022-10-24T15:34:19;22.63;;;6.55;;
34741;SDS011;20968;42.696;23.360;2022-10-24T15:36:48;14.40;;;7.47;;
34741;SDS011;20968;42.696;23.360;2022-10-24T15:39:17;18.65;;;6.65;;
34741;SDS011;20968;42.696;23.360;2022-10-24T15:41:45;24.30;;;5.63;;
34741;SDS011;20968;42.696;23.360;2022-10-24T15:44:15;23.00;;;6.32;;
34741;SDS011;20968;42.696;23.360;2022-10-24T15:46:49;19.08;;;7.07;;
34741;SDS011;20968;42.696;23.360;2022-10-24T15:49:15;24.08;;;7.97;;
34741;SDS011;20968;42.696;23.360;2022-10-24T15:51:42;26.17;;;7.55;;
34741;SDS011;20968;42.696;23.360;2022-10-24T15:54:12;15.05;;;7.45;;
34741;SDS011;20968;42.696;23.360;2022-10-24T15:56:39;22.95;;;7.47;;
34741;SDS011;20968;42.696;23.360;2022-10-24T15:59:04;26.58;;;7.85;;
34741;SDS011;20968;42.696;23.360;2022-10-24T16:01:31;16.88;;;6.85;;
34741;SDS011;20968;42.696;23.360;2022-10-24T16:04:00;27.33;;;6.93;;
34741;SDS011;20968;42.696;23.360;2022-10-24T16:06:26;19.77;;;7.22;;
34741;SDS011;20968;42.696;23.360;2022-10-24T16:08:57;13.25;;;7.35;;
34741;SDS011;20968;42.696;23.360;2022-10-24T16:11:24;27.65;;;7.93;;
34741;SDS011;20968;42.696;23.360;2022-10-24T16:13:49;25.65;;;7.40;;
34741;SDS011;20968;42.696;23.360;2022-10-24T16:16:15;22.00;;;7.38;;
34741;SDS011;20968;42.696;23.360;2022-10-24T16:19:03;17.80;;;5.70;;
34741;SDS011;20968;42.696;23.360;2022-10-24T16:21:28;15.73;;;5.90;;
34741;SDS011;20968;42.696;23.360;2022-10-24T16:23:53;17.83;;;5.60;;
34741;SDS011;20968;42.696;23.360;2022-10-24T16:26:19;17.42;;;6.32;;
34741;SDS011;20968;42.696;23.360;2022-10-24T16:28:45;21.00;;;5.95;;
34741;SDS011;20968;42.696;23.360;2022-10-24T16:31:10;23.88;;;6.82;;
34741;SDS011;20968;42.696;23.360;2022-10-24T16:33:42;25.00;;;7.05;;
34741;SDS011;20968;42.696;23.360;2022-10-24T16:36:13;26.92;;;9.63;;
34741;SDS011;20968;42.696;23.360;2022-10-24T16:38:42;27.90;;;8.38;;
34741;SDS011;20968;42.696;23.360;2022-10-24T16:41:13;23.10;;;8.85;;
34741;SDS011;20968;42.696;23.360;2022-10-24T16:43:42;22.17;;;9.20;;
34741;SDS011;20968;42.696;23.360;2022-10-24T16:46:11;24.98;;;8.73;;
34741;SDS011;20968;42.696;23.360;2022-10-24T16:48:38;25.65;;;8.57;;
34741;SDS011;20968;42.696;23.360;2022-10-24T16:51:07;30.58;;;8.80;;
34741;SDS011;20968;42.696;23.360;2022-10-24T16:53:38;22.65;;;7.85;;
34741;SDS011;20968;42.696;23.360;2022-10-24T16:56:03;20.58;;;8.40;;
34741;SDS011;20968;42.696;23.360;2022-10-24T16:58:29;18.55;;;9.65;;
34741;SDS011;20968;42.696;23.360;2022-10-24T17:01:02;40.55;;;14.48;;